createdAt,value
2019-01-14T00:00:15.596Z,1.20
2019-01-14T00:01:15.805Z,1.30
2019-01-14T00:02:15.923Z,0.90
2019-01-14T00:03:16.113Z,1.90
2019-01-14T00:04:16.231Z,3.10
2019-01-14T00:05:16.340Z,0.50
2019-01-14T00:06:16.514Z,1.70
2019-01-14T00:07:16.686Z,1.40
2019-01-14T00:08:16.824Z,1.80
2019-01-14T00:09:23.265Z,1.00
2019-01-14T00:10:17.034Z,2.30
2019-01-14T00:11:17.349Z,0.80
2019-01-14T00:12:17.427Z,2.70
2019-01-14T00:13:17.689Z,1.70
2019-01-14T00:14:17.826Z,1.40
2019-01-14T00:15:17.908Z,1.30
2019-01-14T00:16:18.175Z,2.20
2019-01-14T00:17:18.314Z,1.90
2019-01-14T00:18:18.422Z,2.00
2019-01-14T00:19:18.664Z,1.20
2019-01-14T00:20:18.655Z,2.00
2019-01-14T00:21:18.871Z,2.30
2019-01-14T00:22:18.913Z,1.50
2019-01-14T00:23:19.010Z,2.20
2019-01-14T00:24:19.202Z,2.20
2019-01-14T00:25:19.461Z,1.70
2019-01-14T00:26:19.612Z,2.20
2019-01-14T00:27:19.755Z,2.70
2019-01-14T00:28:19.921Z,2.30
2019-01-14T00:29:19.998Z,1.90
2019-01-14T00:30:20.317Z,2.90
2019-01-14T00:31:20.316Z,1.00
2019-01-14T00:32:20.459Z,1.40
2019-01-14T00:33:20.562Z,2.40
2019-01-14T00:34:20.649Z,3.10
2019-01-14T00:35:20.987Z,2.40
2019-01-14T00:36:21.089Z,2.50
2019-01-14T00:37:21.374Z,2.60
2019-01-14T00:38:21.309Z,3.40
2019-01-14T00:39:21.591Z,2.10
2019-01-14T00:40:21.774Z,2.00
2019-01-14T00:41:21.922Z,2.70
2019-01-14T00:42:22.013Z,2.90
2019-01-14T00:43:22.233Z,2.60
2019-01-14T00:44:22.452Z,2.10
2019-01-14T00:45:22.691Z,2.80
2019-01-14T00:46:22.849Z,2.30
2019-01-14T00:47:23.026Z,4.00
2019-01-14T00:48:23.108Z,2.30
2019-01-14T00:49:23.451Z,3.60
2019-01-14T00:50:23.570Z,5.00
2019-01-14T00:51:23.704Z,3.60
2019-01-14T00:52:23.886Z,3.60
2019-01-14T00:53:24.031Z,4.40
2019-01-14T00:54:24.097Z,2.40
2019-01-14T00:55:24.295Z,5.00
2019-01-14T00:56:24.522Z,4.00
2019-01-14T00:57:24.632Z,3.90
2019-01-14T00:58:24.720Z,4.10
2019-01-14T00:59:24.947Z,3.30
2019-01-14T01:00:25.077Z,3.70
2019-01-14T01:01:25.201Z,5.00
2019-01-14T01:02:25.313Z,3.20
2019-01-14T01:03:25.436Z,2.80
2019-01-14T01:04:25.581Z,2.80
2019-01-14T01:05:25.811Z,4.00
2019-01-14T01:06:25.774Z,3.50
2019-01-14T01:07:25.974Z,4.10
2019-01-14T01:08:26.209Z,3.10
2019-01-14T01:09:26.291Z,4.40
2019-01-14T01:10:26.508Z,5.10
2019-01-14T01:11:26.797Z,3.80
2019-01-14T01:12:26.900Z,3.20
2019-01-14T01:13:27.022Z,3.10
2019-01-14T01:14:27.177Z,3.70
2019-01-14T01:15:27.404Z,3.00
2019-01-14T01:16:27.622Z,4.70
2019-01-14T01:17:27.861Z,2.50
2019-01-14T01:18:27.964Z,3.00
2019-01-14T01:19:28.116Z,3.50
2019-01-14T01:20:28.289Z,3.10
2019-01-14T01:21:28.538Z,2.20
2019-01-14T01:22:28.583Z,2.70
2019-01-14T01:23:28.743Z,3.30
2019-01-14T01:24:28.922Z,4.20
2019-01-14T01:25:29.076Z,4.00
2019-01-14T01:26:29.284Z,3.30
2019-01-14T01:27:29.405Z,2.90
2019-01-14T01:28:29.568Z,1.90
2019-01-14T01:29:29.741Z,2.10
2019-01-14T01:30:29.931Z,2.40
2019-01-14T01:31:30.131Z,3.00
2019-01-14T01:32:30.312Z,3.50
2019-01-14T01:33:30.473Z,2.90
2019-01-14T01:34:30.666Z,2.80
2019-01-14T01:35:30.843Z,2.90
2019-01-14T01:36:32.026Z,3.20
2019-01-14T01:37:31.177Z,3.00
2019-01-14T01:38:31.340Z,3.60
2019-01-14T01:39:31.598Z,2.20
2019-01-14T01:40:31.711Z,2.10
2019-01-14T01:41:31.879Z,2.80
2019-01-14T01:42:32.048Z,2.80
2019-01-14T01:43:32.205Z,1.90
2019-01-14T01:44:32.368Z,2.20
2019-01-14T01:45:32.541Z,3.20
2019-01-14T01:46:32.691Z,3.60
2019-01-14T01:47:32.866Z,2.50
2019-01-14T01:48:33.054Z,4.30
2019-01-14T01:49:33.198Z,2.30
2019-01-14T01:50:33.369Z,3.00
2019-01-14T01:51:33.527Z,2.20
2019-01-14T01:52:33.694Z,2.90
2019-01-14T01:53:33.857Z,3.00
2019-01-14T01:54:34.018Z,2.50
2019-01-14T01:55:34.203Z,2.70
2019-01-14T01:56:34.355Z,2.60
2019-01-14T01:57:34.535Z,3.30
2019-01-14T01:58:34.703Z,1.80
2019-01-14T01:59:34.883Z,1.40
2019-01-14T02:00:35.051Z,2.30
2019-01-14T02:01:35.209Z,2.60
2019-01-14T02:02:35.377Z,1.90
2019-01-14T02:03:35.570Z,1.70
2019-01-14T02:04:35.705Z,3.00
2019-01-14T02:05:35.869Z,1.40
2019-01-14T02:06:39.313Z,1.80
2019-01-14T02:07:36.197Z,2.30
2019-01-14T02:08:36.390Z,1.30
2019-01-14T02:09:38.109Z,2.40
2019-01-14T02:10:36.767Z,1.40
2019-01-14T02:11:36.934Z,1.50
2019-01-14T02:12:37.103Z,2.60
2019-01-14T02:13:37.268Z,1.30
2019-01-14T02:14:37.450Z,1.70
2019-01-14T02:15:37.589Z,3.10
2019-01-14T02:16:37.758Z,2.10
2019-01-14T02:17:37.934Z,1.70
2019-01-14T02:18:38.108Z,1.70
2019-01-14T02:19:38.267Z,1.80
2019-01-14T02:20:38.431Z,2.00
2019-01-14T02:21:38.604Z,1.40
2019-01-14T02:22:38.773Z,2.90
2019-01-14T02:23:38.943Z,1.40
2019-01-14T02:24:39.106Z,2.60
2019-01-14T02:25:39.286Z,2.10
2019-01-14T02:26:39.428Z,1.00
2019-01-14T02:27:39.627Z,1.40
2019-01-14T02:28:39.721Z,1.80
2019-01-14T02:29:39.892Z,4.00
2019-01-14T02:30:40.065Z,2.10
2019-01-14T02:31:40.221Z,2.30
2019-01-14T02:32:40.384Z,2.60
2019-01-14T02:33:40.565Z,1.00
2019-01-14T02:34:40.732Z,2.00
2019-01-14T02:35:40.902Z,2.10
2019-01-14T02:36:48.356Z,0.60
2019-01-14T02:37:41.231Z,3.10
2019-01-14T02:38:41.416Z,0.90
2019-01-14T02:39:41.592Z,1.70
2019-01-14T02:40:41.752Z,1.80
2019-01-14T02:41:41.912Z,2.10
2019-01-14T02:42:42.083Z,1.60
2019-01-14T02:43:42.255Z,2.20
2019-01-14T02:44:42.414Z,3.70
2019-01-14T02:45:42.576Z,1.20
2019-01-14T02:46:42.740Z,1.90
2019-01-14T02:47:42.967Z,4.20
2019-01-14T02:48:43.020Z,2.30
2019-01-14T02:49:43.186Z,0.60
2019-01-14T02:50:43.350Z,1.20
2019-01-14T02:51:43.519Z,1.30
2019-01-14T02:52:43.680Z,1.80
2019-01-14T02:53:43.835Z,2.30
2019-01-14T02:54:44.018Z,0.60
2019-01-14T02:55:44.172Z,0.30
2019-01-14T02:56:44.336Z,0.90
2019-01-14T02:57:44.514Z,0.70
2019-01-14T02:58:44.702Z,1.90
2019-01-14T02:59:44.866Z,1.40
2019-01-14T03:00:45.064Z,1.10
2019-01-14T03:01:45.205Z,1.50
2019-01-14T03:02:45.367Z,1.30
2019-01-14T03:03:45.555Z,1.20
2019-01-14T03:04:45.719Z,1.00
2019-01-14T03:05:45.900Z,1.70
2019-01-14T03:06:46.064Z,2.60
2019-01-14T03:07:46.229Z,1.40
2019-01-14T03:08:46.388Z,1.70
2019-01-14T03:09:46.542Z,0.90
2019-01-14T03:10:46.710Z,1.40
2019-01-14T03:11:46.884Z,2.80
2019-01-14T03:12:47.045Z,2.80
2019-01-14T03:13:47.207Z,1.40
2019-01-14T03:14:47.385Z,2.90
2019-01-14T03:15:47.573Z,1.80
2019-01-14T03:16:47.712Z,3.10
2019-01-14T03:17:47.877Z,2.20
2019-01-14T03:18:48.044Z,2.30
2019-01-14T03:19:48.220Z,2.60
2019-01-14T03:20:48.380Z,3.30
2019-01-14T03:21:48.553Z,2.10
2019-01-14T03:22:48.731Z,2.90
2019-01-14T03:23:48.881Z,3.20
2019-01-14T03:24:49.056Z,2.60
2019-01-14T03:25:57.768Z,2.50
2019-01-14T03:26:49.421Z,3.30
2019-01-14T03:27:49.596Z,1.40
2019-01-14T03:28:49.766Z,2.20
2019-01-14T03:29:49.932Z,1.80
2019-01-14T03:30:50.132Z,2.00
2019-01-14T03:31:50.271Z,3.40
2019-01-14T03:32:50.479Z,1.70
2019-01-14T03:33:50.596Z,2.10
2019-01-14T03:34:50.805Z,3.60
2019-01-14T03:35:50.921Z,3.30
2019-01-14T03:36:51.095Z,2.80
2019-01-14T03:37:51.290Z,2.20
2019-01-14T03:38:51.428Z,2.60
2019-01-14T03:39:51.606Z,2.90
2019-01-14T03:40:51.773Z,1.60
2019-01-14T03:41:51.942Z,3.40
2019-01-14T03:42:52.108Z,1.80
2019-01-14T03:43:52.297Z,3.30
2019-01-14T03:44:52.434Z,2.50
2019-01-14T03:45:52.617Z,2.70
2019-01-14T03:46:54.654Z,3.60
2019-01-14T03:47:52.930Z,1.50
2019-01-14T03:48:53.095Z,2.20
2019-01-14T03:49:53.269Z,3.00
2019-01-14T03:50:53.434Z,1.40
2019-01-14T03:51:53.602Z,3.20
2019-01-14T03:52:53.781Z,1.70
2019-01-14T03:53:53.945Z,6.70
2019-01-14T03:54:54.125Z,4.70
2019-01-14T03:55:54.301Z,2.00
2019-01-14T03:56:54.483Z,3.70
2019-01-14T03:57:54.634Z,3.20
2019-01-14T03:58:54.803Z,2.60
2019-01-14T03:59:54.958Z,2.70
2019-01-14T04:00:55.132Z,3.70
2019-01-14T04:01:55.335Z,2.70
2019-01-14T04:02:55.486Z,3.90
2019-01-14T04:04:04.054Z,3.90
2019-01-14T04:04:55.870Z,3.20
2019-01-14T04:05:56.206Z,4.00
2019-01-14T04:06:56.389Z,3.10
2019-01-14T04:07:56.516Z,5.80
2019-01-14T04:08:56.519Z,5.00
2019-01-14T04:09:56.602Z,5.90
2019-01-14T04:10:56.835Z,4.00
2019-01-14T04:11:57.040Z,4.50
2019-01-14T04:12:57.137Z,5.90
2019-01-14T04:13:57.582Z,4.60
2019-01-14T04:14:57.686Z,5.70
2019-01-14T04:15:57.960Z,6.70
2019-01-14T04:16:57.771Z,3.80
2019-01-14T04:17:58.020Z,4.70
2019-01-14T04:18:58.117Z,6.50
2019-01-14T04:19:58.338Z,4.60
2019-01-14T04:20:58.423Z,3.40
2019-01-14T04:21:58.758Z,3.90
2019-01-14T04:22:59.087Z,4.90
2019-01-14T04:23:59.071Z,7.60
2019-01-14T04:24:59.199Z,3.90
2019-01-14T04:25:59.337Z,5.00
2019-01-14T04:26:59.610Z,6.90
2019-01-14T04:27:59.561Z,3.60
2019-01-14T04:29:00.000Z,5.60
2019-01-14T04:29:59.973Z,6.00
2019-01-14T04:31:00.257Z,6.20
2019-01-14T04:32:00.359Z,6.80
2019-01-14T04:33:00.420Z,5.70
2019-01-14T04:34:00.604Z,4.60
2019-01-14T04:35:00.861Z,5.20
2019-01-14T04:36:01.010Z,6.90
2019-01-14T04:37:01.099Z,4.80
2019-01-14T04:38:01.321Z,6.80
2019-01-14T04:39:01.554Z,7.50
2019-01-14T04:40:01.714Z,4.70
2019-01-14T04:41:02.666Z,4.90
2019-01-14T04:42:02.093Z,5.30
2019-01-14T04:43:02.159Z,6.50
2019-01-14T04:44:02.324Z,6.10
2019-01-14T04:45:02.490Z,5.00
2019-01-14T04:46:02.660Z,3.70
2019-01-14T04:47:02.829Z,3.80
2019-01-14T04:48:03.001Z,5.20
2019-01-14T04:49:03.173Z,7.40
2019-01-14T04:50:03.334Z,5.30
2019-01-14T04:51:03.509Z,5.60
2019-01-14T04:52:03.737Z,4.30
2019-01-14T04:53:03.927Z,5.10
2019-01-14T04:54:04.089Z,5.80
2019-01-14T04:55:04.242Z,3.80
2019-01-14T04:56:04.320Z,4.60
2019-01-14T04:57:04.488Z,5.40
2019-01-14T04:58:04.671Z,5.40
2019-01-14T04:59:04.849Z,6.90
2019-01-14T05:00:06.721Z,4.50
2019-01-14T05:01:05.158Z,4.50
2019-01-14T05:02:05.319Z,5.80
2019-01-14T05:03:05.478Z,6.40
2019-01-14T05:04:05.714Z,6.80
2019-01-14T05:05:05.840Z,4.70
2019-01-14T05:06:06.024Z,4.70
2019-01-14T05:07:06.202Z,5.70
2019-01-14T05:08:06.358Z,5.80
2019-01-14T05:09:06.519Z,5.70
2019-01-14T05:10:06.731Z,6.50
2019-01-14T05:11:06.891Z,5.00
2019-01-14T05:12:07.083Z,4.70
2019-01-14T05:13:08.088Z,5.90
2019-01-14T05:14:09.241Z,6.00
2019-01-14T05:15:07.627Z,6.60
2019-01-14T05:16:07.747Z,5.80
2019-01-14T05:17:07.935Z,5.00
2019-01-14T05:18:08.173Z,5.10
2019-01-14T05:19:08.301Z,5.90
2019-01-14T05:20:11.217Z,6.80
2019-01-14T05:21:08.656Z,7.30
2019-01-14T05:22:10.758Z,6.30
2019-01-14T05:23:09.037Z,5.70
2019-01-14T05:24:09.215Z,5.90
2019-01-14T05:25:11.299Z,4.00
2019-01-14T05:26:09.634Z,5.50
2019-01-14T05:27:09.735Z,6.50
2019-01-14T05:28:09.881Z,4.60
2019-01-14T05:29:11.488Z,7.00
2019-01-14T05:30:10.180Z,4.80
2019-01-14T05:31:10.353Z,7.30
2019-01-14T05:32:10.548Z,6.90
2019-01-14T05:33:10.678Z,5.10
2019-01-14T05:34:10.841Z,5.90
2019-01-14T05:35:11.032Z,7.20
2019-01-14T05:36:11.230Z,5.20
2019-01-14T05:37:13.240Z,5.10
2019-01-14T05:38:11.546Z,6.40
2019-01-14T05:39:12.779Z,5.60
2019-01-14T05:40:11.840Z,9.80
2019-01-14T05:41:12.183Z,4.10
2019-01-14T05:42:12.180Z,5.40
2019-01-14T05:43:12.362Z,8.90
2019-01-14T05:44:16.901Z,6.40
2019-01-14T05:45:18.292Z,6.90
2019-01-14T05:46:16.740Z,4.50
2019-01-14T05:47:16.456Z,7.20
2019-01-14T05:48:13.150Z,7.10
2019-01-14T05:49:15.534Z,6.30
2019-01-14T05:50:13.817Z,6.50
2019-01-14T05:51:14.585Z,6.10
2019-01-14T05:52:14.789Z,3.70
2019-01-14T05:53:13.896Z,6.70
2019-01-14T05:54:14.068Z,7.60
2019-01-14T05:55:16.225Z,5.70
2019-01-14T05:56:14.412Z,6.20
2019-01-14T05:57:14.569Z,7.50
2019-01-14T05:58:14.740Z,6.40
2019-01-14T05:59:14.973Z,6.40
2019-01-14T06:00:15.568Z,6.50
2019-01-14T06:01:15.212Z,6.30
2019-01-14T06:02:18.340Z,7.20
2019-01-14T06:03:15.539Z,5.80
2019-01-14T06:04:16.783Z,5.90
2019-01-14T06:05:15.895Z,8.80
2019-01-14T06:06:16.063Z,6.30
2019-01-14T06:07:16.230Z,7.00
2019-01-14T06:08:16.397Z,8.00
2019-01-14T06:09:16.575Z,7.00
2019-01-14T06:10:16.750Z,5.60
2019-01-14T06:11:16.928Z,9.70
2019-01-14T06:12:17.079Z,5.50
2019-01-14T06:13:17.260Z,5.60
2019-01-14T06:14:17.449Z,7.10
2019-01-14T06:15:17.619Z,10.10
2019-01-14T06:16:19.740Z,6.30
2019-01-14T06:17:17.948Z,8.30
2019-01-14T06:18:18.166Z,7.50
2019-01-14T06:19:21.467Z,6.20
2019-01-14T06:20:20.211Z,7.30
2019-01-14T06:21:18.636Z,8.20
2019-01-14T06:22:18.830Z,6.40
2019-01-14T06:23:20.778Z,7.70
2019-01-14T06:24:19.125Z,8.20
2019-01-14T06:25:19.310Z,7.80
2019-01-14T06:26:23.074Z,10.30
2019-01-14T06:27:22.522Z,7.70
2019-01-14T06:28:19.820Z,8.50
2019-01-14T06:29:23.060Z,7.10
2019-01-14T06:30:22.750Z,7.10
2019-01-14T06:31:20.423Z,6.80
2019-01-14T06:32:20.375Z,6.50
2019-01-14T06:33:20.549Z,8.40
2019-01-14T06:34:20.713Z,7.10
2019-01-14T06:35:20.910Z,6.10
2019-01-14T06:36:21.047Z,8.80
2019-01-14T06:37:21.228Z,8.00
2019-01-14T06:38:21.398Z,6.60
2019-01-14T06:39:21.562Z,6.20
2019-01-14T06:40:21.743Z,9.40
2019-01-14T06:41:21.938Z,5.20
2019-01-14T06:42:22.058Z,8.00
2019-01-14T06:43:22.286Z,8.40
2019-01-14T06:44:22.403Z,7.00
2019-01-14T06:45:22.561Z,7.90
2019-01-14T06:46:22.780Z,9.00
2019-01-14T06:47:22.948Z,9.40
2019-01-14T06:48:25.171Z,5.90
2019-01-14T06:49:26.209Z,8.80
2019-01-14T06:50:23.435Z,8.60
2019-01-14T06:51:23.591Z,7.10
2019-01-14T06:52:23.767Z,7.10
2019-01-14T06:53:23.934Z,6.70
2019-01-14T06:54:25.702Z,7.00
2019-01-14T06:55:25.259Z,6.60
2019-01-14T06:56:24.332Z,8.10
2019-01-14T06:57:26.306Z,9.10
2019-01-14T06:58:24.675Z,9.80
2019-01-14T06:59:24.855Z,8.00
2019-01-14T07:00:25.022Z,8.00
2019-01-14T07:01:25.205Z,9.90
2019-01-14T07:02:25.377Z,7.80
2019-01-14T07:03:25.541Z,9.40
2019-01-14T07:04:25.717Z,7.30
2019-01-14T07:05:27.751Z,7.80
2019-01-14T07:06:26.090Z,6.20
2019-01-14T07:07:26.255Z,6.10
2019-01-14T07:08:26.418Z,8.70
2019-01-14T07:09:26.605Z,9.40
2019-01-14T07:10:26.896Z,7.80
2019-01-14T07:11:26.927Z,8.70
2019-01-14T07:12:29.348Z,7.60
2019-01-14T07:13:27.388Z,9.50
2019-01-14T07:14:31.732Z,9.40
2019-01-14T07:15:27.538Z,10.00
2019-01-14T07:16:27.715Z,7.70
2019-01-14T07:17:27.884Z,7.90
2019-01-14T07:18:28.081Z,8.50
2019-01-14T07:19:30.338Z,9.90
2019-01-14T07:20:28.280Z,7.70
2019-01-14T07:21:28.521Z,8.10
2019-01-14T07:22:31.624Z,9.40
2019-01-14T07:23:30.879Z,6.70
2019-01-14T07:24:32.395Z,9.70
2019-01-14T07:25:30.709Z,9.50
2019-01-14T07:26:29.206Z,7.20
2019-01-14T07:27:29.368Z,8.30
2019-01-14T07:28:29.553Z,7.70
2019-01-14T07:29:29.730Z,10.10
2019-01-14T07:30:31.750Z,8.60
2019-01-14T07:31:32.137Z,8.40
2019-01-14T07:32:32.209Z,7.30
2019-01-14T07:33:30.376Z,9.50
2019-01-14T07:34:30.572Z,11.20
2019-01-14T07:35:30.745Z,9.70
2019-01-14T07:36:30.929Z,9.80
2019-01-14T07:37:31.072Z,9.60
2019-01-14T07:38:33.647Z,9.00
2019-01-14T07:39:34.406Z,9.80
2019-01-14T07:48:25.769Z,11.60
2019-01-14T07:49:26.801Z,10.40
2019-01-14T07:53:27.260Z,7.30
2019-01-14T07:53:54.597Z,9.10
2019-01-14T07:54:51.587Z,10.20
2019-01-14T07:55:54.164Z,8.10
2019-01-14T07:56:56.042Z,10.10
2019-01-14T07:57:54.863Z,9.80
2019-01-14T07:58:58.622Z,8.10
2019-01-14T08:00:13.555Z,8.30
2019-01-14T08:04:25.242Z,12.00
2019-01-14T08:05:06.746Z,8.30
2019-01-14T08:05:58.411Z,9.40
2019-01-14T08:07:22.927Z,10.00
2019-01-14T08:07:59.129Z,11.60
2019-01-14T08:08:59.121Z,8.20
2019-01-14T08:09:57.764Z,10.20
2019-01-14T08:10:56.782Z,9.80
2019-01-14T08:11:56.913Z,8.00
2019-01-14T08:12:57.056Z,8.70
2019-01-14T08:13:57.235Z,10.10
2019-01-14T08:14:57.383Z,9.50
2019-01-14T08:15:57.564Z,9.70
2019-01-14T08:17:00.760Z,8.70
2019-01-14T08:17:57.930Z,12.70
2019-01-14T08:18:57.977Z,9.50
2019-01-14T08:19:58.135Z,9.50
2019-01-14T08:20:58.315Z,9.50
2019-01-14T08:21:58.595Z,9.10
2019-01-14T08:23:02.655Z,10.20
2019-01-14T08:24:00.460Z,11.40
2019-01-14T08:25:05.198Z,11.10
2019-01-14T08:27:58.231Z,10.20
2019-01-14T08:28:32.690Z,8.60
2019-01-14T08:29:32.362Z,10.70
2019-01-14T08:30:32.501Z,10.10
2019-01-14T08:31:32.788Z,10.10
2019-01-14T08:32:32.761Z,7.60
2019-01-14T08:33:32.929Z,9.60
2019-01-14T08:34:33.095Z,10.00
2019-01-14T08:35:33.292Z,9.90
2019-01-14T08:36:33.461Z,8.40
2019-01-14T08:37:33.627Z,8.30
2019-01-14T08:38:33.814Z,8.00
2019-01-14T08:39:33.985Z,7.80
2019-01-14T08:40:34.149Z,8.00
2019-01-14T08:41:34.319Z,10.80
2019-01-14T08:42:34.479Z,7.70
2019-01-14T08:43:34.642Z,10.40
2019-01-14T08:44:34.911Z,8.60
2019-01-14T08:45:34.984Z,8.00
2019-01-14T08:46:35.155Z,8.30
2019-01-14T08:47:35.325Z,10.20
2019-01-14T08:48:35.514Z,10.20
2019-01-14T08:49:35.678Z,8.20
2019-01-14T08:50:35.856Z,10.80
2019-01-14T08:51:36.597Z,9.70
2019-01-14T08:52:36.261Z,9.20
2019-01-14T08:53:36.300Z,11.40
2019-01-14T08:54:36.475Z,7.90
2019-01-14T08:55:36.638Z,9.20
2019-01-14T08:56:36.799Z,6.90
2019-01-14T08:57:36.984Z,9.40
2019-01-14T08:58:37.134Z,7.20
2019-01-14T08:59:37.360Z,8.70
2019-01-14T09:00:37.508Z,8.40
2019-01-14T09:01:37.673Z,8.60
2019-01-14T09:02:37.848Z,6.80
2019-01-14T09:03:38.024Z,11.00
2019-01-14T09:04:38.222Z,9.70
2019-01-14T09:05:38.367Z,7.50
2019-01-14T09:06:38.545Z,9.80
2019-01-14T09:07:38.725Z,7.50
2019-01-14T09:08:38.891Z,10.70
2019-01-14T09:09:39.094Z,8.80
2019-01-14T09:10:39.224Z,11.20
2019-01-14T09:11:39.401Z,8.50
2019-01-14T09:12:39.562Z,10.00
2019-01-14T09:13:39.725Z,10.30
2019-01-14T09:14:39.896Z,7.00
2019-01-14T09:15:40.083Z,6.30
2019-01-14T09:16:40.254Z,5.40
2019-01-14T09:17:40.401Z,8.00
2019-01-14T09:18:40.564Z,7.50
2019-01-14T09:19:40.739Z,7.60
2019-01-14T09:20:40.914Z,10.00
2019-01-14T09:21:41.783Z,6.50
2019-01-14T09:22:41.271Z,7.90
2019-01-14T09:23:41.430Z,8.20
2019-01-14T09:24:41.640Z,8.40
2019-01-14T09:25:41.795Z,6.50
2019-01-14T09:26:42.000Z,6.80
2019-01-14T09:27:42.146Z,6.60
2019-01-14T09:28:42.318Z,8.00
2019-01-14T09:29:42.489Z,6.30
2019-01-14T09:30:42.678Z,8.10
2019-01-14T09:31:42.863Z,7.90
2019-01-14T09:32:43.881Z,6.90
2019-01-14T09:33:43.207Z,7.40
2019-01-14T09:34:43.633Z,8.10
2019-01-14T09:35:43.685Z,5.40
2019-01-14T09:36:43.640Z,8.50
2019-01-14T09:37:43.809Z,6.80
2019-01-14T09:38:43.979Z,9.50
2019-01-14T09:39:44.181Z,8.20
2019-01-14T09:40:44.367Z,6.80
2019-01-14T09:41:44.501Z,9.00
2019-01-14T09:42:44.677Z,8.30
2019-01-14T09:43:44.838Z,9.00
2019-01-14T09:44:44.998Z,8.70
2019-01-14T09:45:45.179Z,6.00
2019-01-14T09:46:45.340Z,6.40
2019-01-14T09:47:45.516Z,7.40
2019-01-14T09:48:45.681Z,6.70
2019-01-14T09:49:45.858Z,9.30
2019-01-14T09:50:46.118Z,6.60
2019-01-14T09:51:46.227Z,8.20
2019-01-14T09:52:46.402Z,6.50
2019-01-14T09:53:46.565Z,8.40
2019-01-14T09:54:46.742Z,7.30
2019-01-14T09:55:46.902Z,8.60
2019-01-14T09:56:47.087Z,9.50
2019-01-14T09:57:47.265Z,7.00
2019-01-14T09:58:47.429Z,10.70
2019-01-14T09:59:47.671Z,7.70
2019-01-14T10:00:47.780Z,6.40
2019-01-14T10:01:47.938Z,6.70
2019-01-14T10:02:48.099Z,9.10
2019-01-14T10:03:48.317Z,5.80
2019-01-14T10:04:48.482Z,6.60
2019-01-14T10:05:48.638Z,6.30
2019-01-14T10:06:48.816Z,7.30
2019-01-14T10:07:49.173Z,9.20
2019-01-14T10:08:49.170Z,7.90
2019-01-14T10:09:49.353Z,8.10
2019-01-14T10:10:49.538Z,7.30
2019-01-14T10:11:49.725Z,5.70
2019-01-14T10:12:49.890Z,4.80
2019-01-14T10:13:50.097Z,6.50
2019-01-14T10:14:50.231Z,5.80
2019-01-14T10:15:50.402Z,4.90
2019-01-14T10:16:50.574Z,6.50
2019-01-14T10:17:50.736Z,4.50
2019-01-14T10:18:50.913Z,8.70
2019-01-14T10:19:51.071Z,7.20
2019-01-14T10:20:51.391Z,7.00
2019-01-14T10:21:51.329Z,7.10
2019-01-14T10:22:51.491Z,7.60
2019-01-14T10:23:51.658Z,4.40
2019-01-14T10:24:51.826Z,6.90
2019-01-14T10:25:52.011Z,4.30
2019-01-14T10:26:52.170Z,4.40
2019-01-14T10:27:52.333Z,6.30
2019-01-14T10:28:52.514Z,5.10
2019-01-14T10:29:52.734Z,4.10
2019-01-14T10:30:52.858Z,4.90
2019-01-14T10:31:53.012Z,4.60
2019-01-14T10:32:53.169Z,2.70
2019-01-14T10:33:53.338Z,5.30
2019-01-14T10:34:53.510Z,7.20
2019-01-14T10:35:53.689Z,7.10
2019-01-14T10:36:53.895Z,5.30
2019-01-14T10:37:54.026Z,5.60
2019-01-14T10:38:54.197Z,5.00
2019-01-14T10:39:54.427Z,4.10
2019-01-14T10:40:54.568Z,5.70
2019-01-14T10:41:54.704Z,6.40
2019-01-14T10:42:55.073Z,6.20
2019-01-14T10:43:56.658Z,6.30
2019-01-14T10:44:55.170Z,5.80
2019-01-14T10:45:57.524Z,4.30
2019-01-14T10:46:57.750Z,5.00
2019-01-14T10:47:57.746Z,7.20
2019-01-14T10:48:57.843Z,7.00
2019-01-14T10:49:55.955Z,5.90
2019-01-14T10:50:56.094Z,5.40
2019-01-14T10:51:56.271Z,4.40
2019-01-14T10:52:56.425Z,5.50
2019-01-14T10:53:56.597Z,5.30
2019-01-14T10:54:56.777Z,4.40
2019-01-14T10:55:56.980Z,5.10
2019-01-14T10:56:57.125Z,4.40
2019-01-14T10:57:57.606Z,5.90
2019-01-14T10:58:57.681Z,5.70
2019-01-14T10:59:57.692Z,4.10
2019-01-14T11:01:01.299Z,6.50
2019-01-14T11:01:59.647Z,5.80
2019-01-14T11:02:58.178Z,7.30
2019-01-14T11:03:58.378Z,4.50
2019-01-14T11:04:58.539Z,6.00
2019-01-14T11:05:58.720Z,6.40
2019-01-14T11:06:58.901Z,5.50
2019-01-14T11:07:59.115Z,5.70
2019-01-14T11:09:05.722Z,5.50
2019-01-14T11:09:59.415Z,6.80
2019-01-14T11:10:59.577Z,7.30
2019-01-14T11:11:59.746Z,4.70
2019-01-14T11:12:59.935Z,5.40
2019-01-14T11:14:00.070Z,4.00
2019-01-14T11:15:02.870Z,4.10
2019-01-14T11:16:00.434Z,6.10
2019-01-14T11:17:00.619Z,6.50
2019-01-14T11:18:00.678Z,3.70
2019-01-14T11:19:00.856Z,3.90
2019-01-14T11:20:01.032Z,6.00
2019-01-14T11:21:01.216Z,4.40
2019-01-14T11:22:01.376Z,3.90
2019-01-14T11:23:01.542Z,4.80
2019-01-14T11:24:01.703Z,4.70
2019-01-14T11:25:02.512Z,6.20
2019-01-14T11:26:02.045Z,2.50
2019-01-14T11:27:02.245Z,5.80
2019-01-14T11:28:02.314Z,3.60
2019-01-14T11:29:02.474Z,5.60
2019-01-14T11:30:02.637Z,4.00
2019-01-14T11:31:02.806Z,3.90
2019-01-14T11:32:02.968Z,5.00
2019-01-14T11:33:03.140Z,4.00
2019-01-14T11:34:03.312Z,3.50
2019-01-14T11:35:03.527Z,3.00
2019-01-14T11:36:03.634Z,4.60
2019-01-14T11:37:03.804Z,4.10
2019-01-14T11:38:03.958Z,4.60
2019-01-14T11:39:05.207Z,3.80
2019-01-14T11:40:04.296Z,3.90
2019-01-14T11:41:04.461Z,4.90
2019-01-14T11:42:04.616Z,3.60
2019-01-14T11:43:04.784Z,3.00
2019-01-14T11:44:07.835Z,4.90
2019-01-14T11:45:05.155Z,3.80
2019-01-14T11:46:05.323Z,4.60
2019-01-14T11:47:05.501Z,5.10
2019-01-14T11:48:05.625Z,4.80
2019-01-14T11:49:05.790Z,4.80
2019-01-14T11:50:05.938Z,4.70
2019-01-14T11:51:06.107Z,3.60
2019-01-14T11:52:06.266Z,2.80
2019-01-14T11:53:06.450Z,4.80
2019-01-14T11:54:09.950Z,3.00
2019-01-14T11:55:08.924Z,3.80
2019-01-14T11:56:06.935Z,3.40
2019-01-14T11:57:07.912Z,3.60
2019-01-14T11:58:07.276Z,3.70
2019-01-14T11:59:07.472Z,4.00
2019-01-14T12:00:07.647Z,4.30
2019-01-14T12:01:07.823Z,4.40
2019-01-14T12:02:07.986Z,4.40
2019-01-14T12:03:08.698Z,2.90
2019-01-14T12:04:08.323Z,3.60
2019-01-14T12:05:08.506Z,5.20
2019-01-14T12:06:08.647Z,3.80
2019-01-14T12:07:08.849Z,3.30
2019-01-14T12:08:08.927Z,4.30
2019-01-14T12:09:12.444Z,2.80
2019-01-14T12:10:09.304Z,3.50
2019-01-14T12:11:09.465Z,3.60
2019-01-14T12:12:09.621Z,2.90
2019-01-14T12:13:09.812Z,2.60
2019-01-14T12:14:09.969Z,3.60
2019-01-14T12:15:10.653Z,3.20
2019-01-14T12:16:10.369Z,4.50
2019-01-14T12:17:10.498Z,2.20
2019-01-14T12:18:10.553Z,3.90
2019-01-14T12:19:10.743Z,3.10
2019-01-14T12:20:10.892Z,2.80
2019-01-14T12:21:11.061Z,3.00
2019-01-14T12:22:11.234Z,3.00
2019-01-14T12:23:11.403Z,3.20
2019-01-14T12:24:11.586Z,3.40
2019-01-14T12:25:11.748Z,2.10
2019-01-14T12:26:11.921Z,4.70
2019-01-14T12:27:12.131Z,2.20
2019-01-14T12:28:12.244Z,2.80
2019-01-14T12:29:12.504Z,3.00
2019-01-14T12:30:12.528Z,3.80
2019-01-14T12:31:12.527Z,3.70
2019-01-14T12:32:12.819Z,4.30
2019-01-14T12:33:12.859Z,4.10
2019-01-14T12:34:13.253Z,4.30
2019-01-14T12:35:13.277Z,1.70
2019-01-14T12:36:13.459Z,2.70
2019-01-14T12:37:15.411Z,2.10
2019-01-14T12:38:13.821Z,3.90
2019-01-14T12:39:19.547Z,2.90
2019-01-14T12:40:14.185Z,3.00
2019-01-14T12:41:14.357Z,3.40
2019-01-14T12:42:14.548Z,2.40
2019-01-14T12:43:14.709Z,4.20
2019-01-14T12:44:14.901Z,2.80
2019-01-14T12:45:15.047Z,4.20
2019-01-14T12:46:15.214Z,2.10
2019-01-14T12:47:15.384Z,2.80
2019-01-14T12:48:15.567Z,3.20
2019-01-14T12:49:15.753Z,2.90
2019-01-14T12:50:15.918Z,2.90
2019-01-14T12:51:16.078Z,2.40
2019-01-14T12:52:16.255Z,3.10
2019-01-14T12:53:16.430Z,2.40
2019-01-14T12:54:16.619Z,2.80
2019-01-14T12:55:16.813Z,3.50
2019-01-14T12:56:16.965Z,2.80
2019-01-14T12:57:17.052Z,4.30
2019-01-14T12:58:17.242Z,2.60
2019-01-14T12:59:17.395Z,4.10
2019-01-14T13:00:17.576Z,3.00
2019-01-14T13:01:17.748Z,2.80
2019-01-14T13:02:17.911Z,3.70
2019-01-14T13:03:18.103Z,2.80
2019-01-14T13:04:18.287Z,1.90
2019-01-14T13:05:18.335Z,3.10
2019-01-14T13:06:18.522Z,2.50
2019-01-14T13:07:18.715Z,2.90
2019-01-14T13:08:18.893Z,2.90
2019-01-14T13:09:19.059Z,3.90
2019-01-14T13:10:19.245Z,3.80
2019-01-14T13:11:23.217Z,3.30
2019-01-14T13:12:19.569Z,2.50
2019-01-14T13:13:19.744Z,4.10
2019-01-14T13:14:19.943Z,4.30
2019-01-14T13:15:20.122Z,2.60
2019-01-14T13:16:21.229Z,3.30
2019-01-14T13:17:20.501Z,3.20
2019-01-14T13:18:20.675Z,4.10
2019-01-14T13:19:20.842Z,4.00
2019-01-14T13:20:21.046Z,3.10
2019-01-14T13:21:21.155Z,3.50
2019-01-14T13:22:21.667Z,3.40
2019-01-14T13:23:21.460Z,3.30
2019-01-14T13:24:21.655Z,4.20
2019-01-14T13:25:21.856Z,3.40
2019-01-14T13:26:22.023Z,3.00
2019-01-14T13:27:22.190Z,3.80
2019-01-14T13:28:22.438Z,2.90
2019-01-14T13:29:22.462Z,3.80
2019-01-14T13:30:22.622Z,2.90
2019-01-14T13:31:22.804Z,4.90
2019-01-14T13:32:22.974Z,3.90
2019-01-14T13:33:23.154Z,3.70
2019-01-14T13:34:24.414Z,4.80